< < Back
Terminal Aerodrome Forecast


Current Version              Previous Versions:   1  2  3  4  5  6  7  8  9  

Terminal Aerodrome Forecast

034
FTUS42 KTAE 061120
TAFTLH
TAF
KTLH 061120Z 0612/0712 02003KT P6SM FEW080 SCT150
     FM061600 07007KT P6SM BKN050=

Latest METAR

541
SAUS80 KWBC 070000 RRB
MTRTLH
METAR KTLH 062353Z 05007KT 10SM FEW060 SCT095 29/14 A3003 RMK AO2 SLP168
T02890144 10311 20289 56003


USA.gov is the U.S. government's official web portal to all federal, state and local government web resources and services.